Dublin, Ohio
Current Conditions -  °F | °C
As of 9:06 AM on Thursday 23 Oct 2014 (Local Time) from KOSU Reporting Station
Haze Haze  
Wind Chill: 39°   Ceiling: Unl
Heat Index: 42°   Visibility: 3mi
Dew Point: 40°   Wind: 5mph
Humidity: 92%   Direction: 350°N
Pressure: 30.24"   Gusts: NA
Location:  40.11°N, 83.13°W
Report Text: KOSU 231306Z 35004KT 3SM BR FEW005 06/04 A3024 RMK AO2 T00560044
Loading
Personal Weather Stations






























Interactive Weather Map
Tropical Storm Tracking
New forecast layout! Learn more

10-Day Weather Forecast

Advertisements
Track Severe Weather on mobile